Time;durP1;ratioP1;P1;durP2;ratioP2;P2;SDS_P1;SDS_P2;PMS_P1;PMS_P2;Temp;Humidity;BMP_temperature;BMP_pressure;BME280_temperature;BME280_humidity;BME280_pressure;Samples;Min_cycle;Max_cycle;Signal;HPM_P1;HPM_P2
2023/09/07 00:02:08;;;;;;;;;;;24.60;52.10;;;;;;5052689;28;19979;-63
2023/09/07 00:04:35;;;;;;;;;;;24.60;52.10;;;;;;5053570;28;20288;-63
2023/09/07 00:07:03;;;;;;;;;;;24.60;52.10;;;;;;5052797;28;20016;-63
2023/09/07 00:09:29;;;;;;;;;;;24.60;52.00;;;;;;5053358;28;19979;-63
2023/09/07 00:11:57;;;;;;;;;;;24.60;52.00;;;;;;5052724;28;19970;-63
2023/09/07 00:14:24;;;;;;;;;;;24.70;52.00;;;;;;5053541;28;19986;-63
2023/09/07 00:16:51;;;;;;;;;;;24.60;51.90;;;;;;5052834;28;20017;-63
2023/09/07 00:19:18;;;;;;;;;;;24.70;52.50;;;;;;5052691;28;19925;-63
2023/09/07 00:21:45;;;;;;;;;;;24.70;51.90;;;;;;5053187;28;19925;-63
2023/09/07 00:24:12;;;;;;;;;;;24.70;51.90;;;;;;5052078;28;20408;-63
2023/09/07 00:26:39;;;;;;;;;;;24.70;51.90;;;;;;5052507;28;20464;-63
2023/09/07 00:29:06;;;;;;;;;;;24.70;51.90;;;;;;5051444;28;20424;-63
2023/09/07 00:31:33;;;;;;;;;;;24.70;51.80;;;;;;5051958;28;19925;-63
2023/09/07 00:34:00;;;;;;;;;;;24.70;51.80;;;;;;5053090;28;19932;-63
2023/09/07 00:36:27;;;;;;;;;;;24.70;51.80;;;;;;5067997;28;19948;-63
2023/09/07 00:38:54;;;;;;;;;;;24.70;51.80;;;;;;5052269;28;19983;-63
2023/09/07 00:41:21;;;;;;;;;;;24.70;51.80;;;;;;5052628;28;20252;-63
2023/09/07 00:43:48;;;;;;;;;;;24.60;51.70;;;;;;5053217;28;19931;-64
2023/09/07 00:46:15;;;;;;;;;;;24.70;51.80;;;;;;5052227;28;20353;-63
2023/09/07 00:48:42;;;;;;;;;;;24.70;51.80;;;;;;5052805;28;19976;-63
2023/09/07 00:51:09;;;;;;;;;;;24.60;51.70;;;;;;5052210;28;19960;-63
2023/09/07 00:53:36;;;;;;;;;;;24.60;51.80;;;;;;5052161;28;20392;-63
2023/09/07 00:56:04;;;;;;;;;;;24.60;51.80;;;;;;5052902;28;20008;-63
2023/09/07 00:58:31;;;;;;;;;;;24.60;51.80;;;;;;5051961;28;19924;-63
2023/09/07 01:00:59;;;;;;;;;;;24.60;51.80;;;;;;5051003;28;19978;-63
2023/09/07 01:03:26;;;;;;;;;;;24.60;51.90;;;;;;5050683;28;19928;-63
2023/09/07 01:06:02;;;;;;;;;;;24.60;51.90;;;;;;5052174;28;20467;-63
2023/09/07 01:08:31;;;;;;;;;;;24.60;51.90;;;;;;5052514;28;19924;-63
2023/09/07 01:10:59;;;;;;;;;;;24.60;51.90;;;;;;5051837;28;19929;-62
2023/09/07 01:13:26;;;;;;;;;;;24.60;51.90;;;;;;5051998;28;20462;-62
2023/09/07 01:15:53;;;;;;;;;;;24.60;51.90;;;;;;5051684;28;19976;-62
2023/09/07 01:18:20;;;;;;;;;;;24.60;52.00;;;;;;5051860;28;19976;-63
2023/09/07 01:21:08;;;;;;;;;;;24.50;51.90;;;;;;5052011;28;20003;-63
2023/09/07 01:23:36;;;;;;;;;;;24.60;52.00;;;;;;5051793;28;19924;-64
2023/09/07 01:26:03;;;;;;;;;;;24.60;52.00;;;;;;5051870;28;19924;-64
2023/09/07 01:28:31;;;;;;;;;;;24.50;52.00;;;;;;5051786;28;20384;-63
2023/09/07 01:30:58;;;;;;;;;;;24.50;52.00;;;;;;5052488;28;19932;-64
2023/09/07 01:33:25;;;;;;;;;;;24.50;52.00;;;;;;5052356;28;19925;-64
2023/09/07 01:35:52;;;;;;;;;;;24.50;52.00;;;;;;5049523;28;20026;-64
2023/09/07 01:38:19;;;;;;;;;;;24.50;52.00;;;;;;5032923;28;19925;-64
2023/09/07 01:40:46;;;;;;;;;;;24.50;52.00;;;;;;5032151;28;19980;-64
2023/09/07 01:43:13;;;;;;;;;;;24.50;52.00;;;;;;5032555;28;19925;-63
2023/09/07 01:45:40;;;;;;;;;;;24.50;52.00;;;;;;5035535;28;19929;-64
2023/09/07 01:48:11;;;;;;;;;;;24.50;52.00;;;;;;5034757;28;19971;-64
2023/09/07 01:50:38;;;;;;;;;;;24.50;52.00;;;;;;5035452;28;19929;-64
2023/09/07 01:53:05;;;;;;;;;;;24.50;52.00;;;;;;5035831;28;19979;-64
2023/09/07 01:55:32;;;;;;;;;;;24.50;52.00;;;;;;5035519;28;19972;-64
2023/09/07 01:57:59;;;;;;;;;;;24.50;52.00;;;;;;5033754;28;19925;-64
2023/09/07 02:00:26;;;;;;;;;;;24.50;52.00;;;;;;5034788;28;19975;-64
2023/09/07 02:02:53;;;;;;;;;;;24.50;52.00;;;;;;5034047;28;19925;-64
2023/09/07 02:05:21;;;;;;;;;;;24.50;52.00;;;;;;5034555;28;20369;-64
2023/09/07 02:07:49;;;;;;;;;;;24.50;52.00;;;;;;5035735;28;20321;-64
2023/09/07 02:10:16;;;;;;;;;;;24.50;52.00;;;;;;5034111;28;19972;-64
2023/09/07 02:12:45;;;;;;;;;;;24.50;52.00;;;;;;5034554;28;19978;-64
2023/09/07 02:15:12;;;;;;;;;;;24.50;52.50;;;;;;5035098;28;20351;-64
2023/09/07 02:17:39;;;;;;;;;;;24.50;52.00;;;;;;5042526;28;19925;-64
2023/09/07 02:20:10;;;;;;;;;;;24.50;52.00;;;;;;5053586;28;19932;-64
2023/09/07 02:22:38;;;;;;;;;;;24.50;52.00;;;;;;5054829;28;19931;-64
2023/09/07 02:25:06;;;;;;;;;;;24.50;52.00;;;;;;5054308;28;19941;-64
2023/09/07 02:27:33;;;;;;;;;;;24.50;52.00;;;;;;5054144;28;20285;-64
2023/09/07 02:30:01;;;;;;;;;;;24.50;52.00;;;;;;5052961;28;19925;-64
2023/09/07 02:32:29;;;;;;;;;;;24.50;52.00;;;;;;5054228;28;19925;-64
2023/09/07 02:34:56;;;;;;;;;;;24.50;51.90;;;;;;5054369;28;19967;-64
2023/09/07 02:37:23;;;;;;;;;;;24.50;51.90;;;;;;5054045;28;20026;-64
2023/09/07 02:39:50;;;;;;;;;;;24.50;51.90;;;;;;5055017;28;19924;-64
2023/09/07 02:42:16;;;;;;;;;;;24.50;51.80;;;;;;5054335;28;19925;-64
2023/09/07 02:44:43;;;;;;;;;;;24.50;51.80;;;;;;5053897;28;20365;-64
2023/09/07 02:47:10;;;;;;;;;;;24.50;51.70;;;;;;5054624;28;19970;-64
2023/09/07 02:49:38;;;;;;;;;;;24.50;51.70;;;;;;5053785;28;19990;-64
2023/09/07 02:52:05;;;;;;;;;;;24.50;51.70;;;;;;5054804;28;19964;-64
2023/09/07 02:54:32;;;;;;;;;;;24.50;51.70;;;;;;5041222;28;20404;-64
2023/09/07 02:56:59;;;;;;;;;;;24.50;51.60;;;;;;5052852;28;19925;-64
2023/09/07 02:59:26;;;;;;;;;;;24.50;51.60;;;;;;5045641;28;20379;-64
2023/09/07 03:01:53;;;;;;;;;;;24.50;51.60;;;;;;5034165;28;19976;-64
2023/09/07 03:04:20;;;;;;;;;;;24.50;51.60;;;;;;5033883;28;19929;-64
2023/09/07 03:06:47;;;;;;;;;;;24.50;51.50;;;;;;5034961;28;19924;-64
2023/09/07 03:09:14;;;;;;;;;;;24.50;51.50;;;;;;5034314;28;19925;-64
2023/09/07 03:11:41;;;;;;;;;;;24.50;51.50;;;;;;5042905;28;20451;-64
2023/09/07 03:14:08;;;;;;;;;;;24.50;51.50;;;;;;5052435;28;20485;-64
2023/09/07 03:16:35;;;;;;;;;;;24.50;51.50;;;;;;5053673;28;19964;-64
2023/09/07 03:19:02;;;;;;;;;;;24.50;51.60;;;;;;5052669;28;20015;-64
2023/09/07 03:21:30;;;;;;;;;;;24.50;51.60;;;;;;5053220;28;19925;-64
2023/09/07 03:23:57;;;;;;;;;;;24.50;51.60;;;;;;5053061;28;19971;-64
2023/09/07 03:26:24;;;;;;;;;;;24.50;51.70;;;;;;5053048;28;19925;-64
2023/09/07 03:28:52;;;;;;;;;;;24.50;51.70;;;;;;5071221;28;19982;-64
2023/09/07 03:31:19;;;;;;;;;;;24.50;51.70;;;;;;5073273;28;20305;-64
2023/09/07 03:33:46;;;;;;;;;;;24.50;51.70;;;;;;5073751;28;20070;-64
2023/09/07 03:36:16;;;;;;;;;;;24.50;51.70;;;;;;5072265;28;20368;-64
2023/09/07 03:38:43;;;;;;;;;;;24.50;51.70;;;;;;5064729;28;19928;-64
2023/09/07 03:41:10;;;;;;;;;;;24.50;51.70;;;;;;5056730;28;20012;-64
2023/09/07 03:43:37;;;;;;;;;;;24.40;51.70;;;;;;5053425;28;20450;-64
2023/09/07 03:46:05;;;;;;;;;;;24.50;51.70;;;;;;5046669;28;19956;-64
2023/09/07 03:48:32;;;;;;;;;;;24.40;51.70;;;;;;5041286;28;19929;-64
2023/09/07 03:51:00;;;;;;;;;;;24.50;51.70;;;;;;5049420;28;20380;-64
2023/09/07 03:53:27;;;;;;;;;;;24.40;51.70;;;;;;5052570;28;19990;-64
2023/09/07 03:55:54;;;;;;;;;;;24.50;51.80;;;;;;5051150;28;20324;-64
2023/09/07 03:58:21;;;;;;;;;;;24.40;51.70;;;;;;5043633;28;19932;-64
2023/09/07 04:00:48;;;;;;;;;;;24.40;51.70;;;;;;5039630;28;19925;-64
2023/09/07 04:03:15;;;;;;;;;;;24.40;51.70;;;;;;5043890;28;19979;-64
2023/09/07 04:05:42;;;;;;;;;;;24.40;51.70;;;;;;5048960;28;19987;-64
2023/09/07 04:08:09;;;;;;;;;;;24.40;51.70;;;;;;5052312;28;19925;-64
2023/09/07 04:10:36;;;;;;;;;;;24.40;51.70;;;;;;5052172;28;19970;-64
2023/09/07 04:13:04;;;;;;;;;;;24.40;51.70;;;;;;5049249;28;19929;-64
2023/09/07 04:15:31;;;;;;;;;;;24.40;51.70;;;;;;5052925;28;20292;-64
2023/09/07 04:17:58;;;;;;;;;;;24.40;51.70;;;;;;5053279;28;19924;-64
2023/09/07 04:20:26;;;;;;;;;;;24.40;51.70;;;;;;5052275;28;20024;-64
2023/09/07 04:22:53;;;;;;;;;;;24.40;51.70;;;;;;5051520;28;19936;-64
2023/09/07 04:25:20;;;;;;;;;;;24.40;51.70;;;;;;5051316;28;19935;-64
2023/09/07 04:27:47;;;;;;;;;;;24.40;51.70;;;;;;5052086;28;19971;-64
2023/09/07 04:30:14;;;;;;;;;;;24.50;51.70;;;;;;5052774;28;20403;-64
2023/09/07 04:32:41;;;;;;;;;;;24.40;51.60;;;;;;5052580;28;19925;-64
2023/09/07 04:35:08;;;;;;;;;;;24.50;51.60;;;;;;5051585;28;19929;-64
2023/09/07 04:37:34;;;;;;;;;;;24.40;51.60;;;;;;5050317;28;20377;-64
2023/09/07 04:40:02;;;;;;;;;;;24.40;51.50;;;;;;5064805;28;19931;-64
2023/09/07 04:42:29;;;;;;;;;;;24.30;51.50;;;;;;5072410;28;20288;-64
2023/09/07 04:44:56;;;;;;;;;;;24.20;51.60;;;;;;5050666;28;20023;-64
2023/09/07 04:47:23;;;;;;;;;;;24.00;51.80;;;;;;5052745;28;19967;-63
2023/09/07 04:49:53;;;;;;;;;;;23.70;52.10;;;;;;5052188;28;19924;-64
2023/09/07 04:52:20;;;;;;;;;;;23.50;52.50;;;;;;5050364;28;19928;-63
2023/09/07 04:54:47;;;;;;;;;;;23.20;51.90;;;;;;5035729;28;20336;-63
2023/09/07 04:57:16;;;;;;;;;;;23.00;50.80;;;;;;5042210;28;19971;-63
2023/09/07 04:59:44;;;;;;;;;;;22.70;50.10;;;;;;5036027;28;20365;-64
2023/09/07 05:02:11;;;;;;;;;;;22.40;49.30;;;;;;5044799;28;19925;-64
2023/09/07 05:04:39;;;;;;;;;;;22.10;49.50;;;;;;5046600;28;19925;-64
2023/09/07 05:07:06;;;;;;;;;;;21.90;50.00;;;;;;5051710;28;19929;-64
2023/09/07 05:09:33;;;;;;;;;;;21.60;49.80;;;;;;5052869;28;19932;-64
2023/09/07 05:12:00;;;;;;;;;;;21.30;49.20;;;;;;5058955;28;19978;-64
2023/09/07 05:14:28;;;;;;;;;;;21.10;50.30;;;;;;5053117;28;19979;-63
2023/09/07 05:16:56;;;;;;;;;;;20.80;50.40;;;;;;5049905;28;19972;-63
2023/09/07 05:19:24;;;;;;;;;;;20.60;51.40;;;;;;5054712;28;20020;-63
2023/09/07 05:21:51;;;;;;;;;;;20.40;52.70;;;;;;5054458;28;19971;-63
2023/09/07 05:24:18;;;;;;;;;;;20.20;51.90;;;;;;5061156;28;19928;-62
2023/09/07 05:26:45;;;;;;;;;;;20.10;51.40;;;;;;5053806;28;19970;-63
2023/09/07 05:29:12;;;;;;;;;;;20.00;51.10;;;;;;5050189;28;19932;-63
2023/09/07 05:31:40;;;;;;;;;;;19.80;52.20;;;;;;5044864;28;19960;-65
2023/09/07 05:34:07;;;;;;;;;;;19.70;51.50;;;;;;5050794;28;19925;-63
2023/09/07 05:36:34;;;;;;;;;;;19.60;52.10;;;;;;5044306;28;20031;-62
2023/09/07 05:39:02;;;;;;;;;;;19.50;52.10;;;;;;5050902;28;19932;-62
2023/09/07 05:41:30;;;;;;;;;;;19.50;52.00;;;;;;5050823;28;19933;-63
2023/09/07 05:43:57;;;;;;;;;;;19.40;52.80;;;;;;5047781;28;20340;-64
2023/09/07 05:46:24;;;;;;;;;;;19.40;53.90;;;;;;5043019;28;19932;-63
2023/09/07 05:48:51;;;;;;;;;;;19.30;52.50;;;;;;5044176;28;19933;-64
2023/09/07 05:51:19;;;;;;;;;;;19.30;53.10;;;;;;5042030;28;19928;-62
2023/09/07 05:53:46;;;;;;;;;;;19.30;53.60;;;;;;5042844;28;20451;-61
2023/09/07 05:56:14;;;;;;;;;;;19.20;53.60;;;;;;5042643;28;20326;-62
2023/09/07 05:58:41;;;;;;;;;;;19.20;52.10;;;;;;5045927;28;19929;-62
2023/09/07 06:01:08;;;;;;;;;;;19.20;52.10;;;;;;5041346;28;20381;-63
2023/09/07 06:03:35;;;;;;;;;;;19.10;53.30;;;;;;5043378;28;20465;-62
2023/09/07 06:06:02;;;;;;;;;;;19.10;53.20;;;;;;5043726;28;20039;-63
2023/09/07 06:08:30;;;;;;;;;;;19.10;52.30;;;;;;5046275;28;19977;-63
2023/09/07 06:10:57;;;;;;;;;;;19.10;52.50;;;;;;5043198;28;20288;-63
2023/09/07 06:13:25;;;;;;;;;;;19.10;53.30;;;;;;5045493;28;19929;-63
2023/09/07 06:15:52;;;;;;;;;;;19.10;53.40;;;;;;5043315;28;19933;-65
2023/09/07 06:18:19;;;;;;;;;;;19.10;52.40;;;;;;5041790;28;19937;-67
2023/09/07 06:20:47;;;;;;;;;;;19.10;53.40;;;;;;5043983;28;19932;-64
2023/09/07 06:23:14;;;;;;;;;;;19.00;53.10;;;;;;5043561;28;20036;-65
2023/09/07 06:25:41;;;;;;;;;;;19.00;52.90;;;;;;5042720;28;19940;-65
2023/09/07 06:28:08;;;;;;;;;;;19.00;53.60;;;;;;5039873;28;19928;-64
2023/09/07 06:30:35;;;;;;;;;;;19.00;54.60;;;;;;5038819;28;20026;-66
2023/09/07 06:33:02;;;;;;;;;;;19.00;53.60;;;;;;5041496;28;19936;-62
2023/09/07 06:35:30;;;;;;;;;;;19.00;53.40;;;;;;5040799;28;19944;-66
2023/09/07 06:37:57;;;;;;;;;;;19.00;54.10;;;;;;5038967;28;19933;-67
2023/09/07 06:40:25;;;;;;;;;;;19.00;53.00;;;;;;5044733;28;20012;-67
2023/09/07 06:42:53;;;;;;;;;;;19.00;53.00;;;;;;5041415;28;19933;-66
2023/09/07 06:45:23;;;;;;;;;;;19.00;53.60;;;;;;5048431;28;20377;-66
2023/09/07 06:47:51;;;;;;;;;;;19.00;53.00;;;;;;5043667;28;19926;-66
2023/09/07 06:50:18;;;;;;;;;;;19.00;53.90;;;;;;5042574;28;19952;-66
2023/09/07 06:52:45;;;;;;;;;;;19.00;53.10;;;;;;5042402;28;19933;-66
2023/09/07 06:55:12;;;;;;;;;;;19.00;52.80;;;;;;5042731;28;19979;-64
2023/09/07 06:57:39;;;;;;;;;;;19.00;53.10;;;;;;5042261;28;20118;-65
2023/09/07 07:00:06;;;;;;;;;;;19.00;53.90;;;;;;5042557;28;20400;-63
2023/09/07 07:02:34;;;;;;;;;;;19.00;53.90;;;;;;5040647;28;19936;-63
2023/09/07 07:05:02;;;;;;;;;;;19.00;53.80;;;;;;5044651;28;19964;-64
2023/09/07 07:07:29;;;;;;;;;;;19.00;53.70;;;;;;5042813;28;19978;-66
2023/09/07 07:09:57;;;;;;;;;;;19.00;53.50;;;;;;5044440;28;20016;-64
2023/09/07 07:12:26;;;;;;;;;;;19.00;54.10;;;;;;5041543;28;19933;-65
2023/09/07 07:14:53;;;;;;;;;;;18.90;54.20;;;;;;5042471;28;20411;-64
2023/09/07 07:17:20;;;;;;;;;;;18.90;54.20;;;;;;5043853;28;20401;-65
2023/09/07 07:19:47;;;;;;;;;;;19.00;54.60;;;;;;5046697;28;19979;-65
2023/09/07 07:22:14;;;;;;;;;;;19.00;54.70;;;;;;5046087;28;19933;-62
2023/09/07 07:27:11;;;;;;;;;;;19.00;54.50;;;;;;5042259;28;21192;-64
2023/09/07 07:29:38;;;;;;;;;;;19.00;54.80;;;;;;5042169;28;19932;-63
2023/09/07 07:32:05;;;;;;;;;;;19.00;55.30;;;;;;5043526;28;19924;-62
2023/09/07 07:34:33;;;;;;;;;;;19.10;55.20;;;;;;5041806;28;19924;-64
2023/09/07 07:37:00;;;;;;;;;;;19.00;55.10;;;;;;5042000;28;20346;-67
2023/09/07 07:39:27;;;;;;;;;;;19.10;55.80;;;;;;5041614;28;19928;-66
2023/09/07 07:41:54;;;;;;;;;;;19.10;55.70;;;;;;5040098;28;20284;-65
2023/09/07 07:44:22;;;;;;;;;;;19.10;55.50;;;;;;5040905;28;19939;-64
2023/09/07 07:46:49;;;;;;;;;;;19.10;55.70;;;;;;5043280;28;20020;-63
2023/09/07 07:49:16;;;;;;;;;;;19.20;55.70;;;;;;5044306;28;20449;-62
2023/09/07 07:51:43;;;;;;;;;;;19.20;55.50;;;;;;5043498;28;19925;-63
2023/09/07 07:54:10;;;;;;;;;;;19.20;55.60;;;;;;5042123;28;20032;-66
2023/09/07 07:56:38;;;;;;;;;;;19.20;55.30;;;;;;5044557;28;20206;-63
2023/09/07 07:59:06;;;;;;;;;;;19.20;55.40;;;;;;5044963;28;19929;-64
2023/09/07 08:01:33;;;;;;;;;;;19.20;56.10;;;;;;5040759;28;19933;-64
2023/09/07 08:04:01;;;;;;;;;;;19.30;55.30;;;;;;5038698;28;20331;-64
2023/09/07 08:06:30;;;;;;;;;;;19.30;55.40;;;;;;5041380;28;19980;-65
2023/09/07 08:08:57;;;;;;;;;;;19.30;55.30;;;;;;5039294;28;20096;-66
2023/09/07 08:11:26;;;;;;;;;;;19.30;55.40;;;;;;5044347;28;20036;-66
2023/09/07 08:13:53;;;;;;;;;;;19.30;55.30;;;;;;5047042;28;20368;-65
2023/09/07 08:16:20;;;;;;;;;;;19.40;55.60;;;;;;5041727;28;19928;-63
2023/09/07 08:18:47;;;;;;;;;;;19.30;55.30;;;;;;5054488;28;20388;-62
2023/09/07 08:21:14;;;;;;;;;;;19.40;56.70;;;;;;5045148;28;19929;-64
2023/09/07 08:23:42;;;;;;;;;;;19.40;55.40;;;;;;5043182;28;20381;-66
2023/09/07 08:26:09;;;;;;;;;;;19.40;56.00;;;;;;5044261;28;20363;-66
2023/09/07 08:28:36;;;;;;;;;;;19.40;55.60;;;;;;5043154;28;19925;-63
2023/09/07 08:31:04;;;;;;;;;;;19.40;55.50;;;;;;5041278;28;19960;-66
2023/09/07 08:33:33;;;;;;;;;;;19.40;55.30;;;;;;5039403;28;19925;-62
2023/09/07 08:36:01;;;;;;;;;;;19.50;55.80;;;;;;5040797;28;19929;-63
2023/09/07 08:38:28;;;;;;;;;;;19.40;56.80;;;;;;5044838;28;19925;-66
2023/09/07 08:41:00;;;;;;;;;;;19.50;56.10;;;;;;5060950;28;19980;-62
2023/09/07 08:43:28;;;;;;;;;;;19.50;56.50;;;;;;5042607;28;19940;-64
2023/09/07 08:46:14;;;;;;;;;;;19.50;56.20;;;;;;5043871;28;19972;-63
2023/09/07 08:48:46;;;;;;;;;;;19.50;56.10;;;;;;5043486;28;20012;-64
2023/09/07 08:51:15;;;;;;;;;;;19.50;56.50;;;;;;5046894;28;19929;-64
2023/09/07 08:53:45;;;;;;;;;;;19.50;56.80;;;;;;5045467;28;20016;-60
2023/09/07 08:56:14;;;;;;;;;;;19.50;57.00;;;;;;5050403;28;20004;-63
2023/09/07 08:58:44;;;;;;;;;;;19.50;56.30;;;;;;5050171;28;19979;-63
2023/09/07 09:01:12;;;;;;;;;;;19.50;56.70;;;;;;5050501;28;19956;-62
2023/09/07 09:03:41;;;;;;;;;;;19.50;56.80;;;;;;5048650;28;19932;-64
2023/09/07 09:06:09;;;;;;;;;;;19.50;57.30;;;;;;5046743;28;19982;-62
2023/09/07 09:08:45;;;;;;;;;;;19.40;57.40;;;;;;5060377;28;19933;-65
2023/09/07 09:11:12;;;;;;;;;;;19.40;57.40;;;;;;5042374;28;19979;-64
2023/09/07 09:13:40;;;;;;;;;;;19.50;57.20;;;;;;5051311;28;19933;-63
2023/09/07 09:16:07;;;;;;;;;;;19.50;57.50;;;;;;5052453;28;20296;-63
2023/09/07 09:18:34;;;;;;;;;;;19.40;58.00;;;;;;5051601;28;19932;-63
2023/09/07 09:21:02;;;;;;;;;;;19.50;57.70;;;;;;5051573;28;20396;-64
2023/09/07 09:23:32;;;;;;;;;;;19.50;57.70;;;;;;5049242;28;19989;-62
2023/09/07 09:26:00;;;;;;;;;;;19.50;57.70;;;;;;5045765;28;20360;-62
2023/09/07 09:28:29;;;;;;;;;;;19.50;57.90;;;;;;5054172;28;19925;-63
2023/09/07 09:30:56;;;;;;;;;;;19.50;57.50;;;;;;5051156;28;19935;-63
2023/09/07 09:33:23;;;;;;;;;;;19.50;57.50;;;;;;5045673;28;19937;-64
2023/09/07 09:35:51;;;;;;;;;;;19.50;57.60;;;;;;5050495;28;20296;-64
2023/09/07 09:38:18;;;;;;;;;;;19.50;57.80;;;;;;5051854;28;19975;-64
2023/09/07 09:40:46;;;;;;;;;;;19.60;57.50;;;;;;5049034;28;20020;-63
2023/09/07 09:43:13;;;;;;;;;;;19.60;58.00;;;;;;5045761;28;19986;-64
2023/09/07 09:45:40;;;;;;;;;;;19.60;57.90;;;;;;5049871;28;19933;-64
2023/09/07 09:48:08;;;;;;;;;;;19.70;57.60;;;;;;5048245;28;19932;-63
2023/09/07 09:50:37;;;;;;;;;;;19.70;57.70;;;;;;5044072;28;19939;-65
2023/09/07 09:53:06;;;;;;;;;;;19.70;56.50;;;;;;5050443;28;20077;-64
2023/09/07 09:55:34;;;;;;;;;;;19.70;56.40;;;;;;5048252;28;19925;-64
2023/09/07 09:58:01;;;;;;;;;;;19.80;57.20;;;;;;5050336;28;19982;-63
2023/09/07 10:00:28;;;;;;;;;;;19.70;57.10;;;;;;5053776;28;19971;-63
2023/09/07 10:03:11;;;;;;;;;;;19.70;57.40;;;;;;5053883;28;20261;-62
2023/09/07 10:05:38;;;;;;;;;;;19.70;56.90;;;;;;5043078;28;19955;-63
2023/09/07 10:08:11;;;;;;;;;;;19.70;55.90;;;;;;5053159;28;19932;-62
2023/09/07 10:10:39;;;;;;;;;;;19.80;56.50;;;;;;5050927;28;19929;-62
2023/09/07 10:13:06;;;;;;;;;;;19.70;56.50;;;;;;5053675;28;19925;-64
2023/09/07 10:15:35;;;;;;;;;;;19.70;55.90;;;;;;5050900;28;19940;-63
2023/09/07 10:18:10;;;;;;;;;;;19.70;55.80;;;;;;5044630;28;20335;-63
2023/09/07 10:20:48;;;;;;;;;;;19.70;55.80;;;;;;5044075;28;19932;-63
2023/09/07 10:23:16;;;;;;;;;;;19.70;55.50;;;;;;5046264;28;20344;-63
2023/09/07 10:25:48;;;;;;;;;;;19.70;54.90;;;;;;5044816;28;19925;-63
2023/09/07 10:28:19;;;;;;;;;;;19.60;55.80;;;;;;5050521;28;19924;-62
2023/09/07 10:30:57;;;;;;;;;;;19.60;55.60;;;;;;5044526;28;20059;-63
2023/09/07 10:33:24;;;;;;;;;;;19.60;55.90;;;;;;5048678;28;19928;-63
2023/09/07 10:35:52;;;;;;;;;;;19.60;55.80;;;;;;5045401;28;19929;-62
2023/09/07 10:38:19;;;;;;;;;;;19.60;55.60;;;;;;5044482;28;20360;-63
2023/09/07 10:40:47;;;;;;;;;;;19.60;55.30;;;;;;5045720;28;20438;-62
2023/09/07 10:43:17;;;;;;;;;;;19.70;54.90;;;;;;5042567;28;19925;-63
2023/09/07 10:45:46;;;;;;;;;;;19.70;55.50;;;;;;5031577;28;19929;-63
2023/09/07 10:48:17;;;;;;;;;;;19.70;56.00;;;;;;5047885;28;20046;-62
2023/09/07 10:50:45;;;;;;;;;;;19.70;55.70;;;;;;5045938;28;19932;-62
2023/09/07 10:53:13;;;;;;;;;;;19.70;55.80;;;;;;5046872;28;19924;-63
2023/09/07 10:55:40;;;;;;;;;;;19.70;55.60;;;;;;5045129;28;20308;-63
2023/09/07 10:58:08;;;;;;;;;;;19.70;55.80;;;;;;5040432;28;20015;-63
2023/09/07 11:00:35;;;;;;;;;;;19.70;54.60;;;;;;5043523;28;19972;-63
2023/09/07 11:03:09;;;;;;;;;;;19.70;55.90;;;;;;5044954;28;19928;-63
2023/09/07 11:05:37;;;;;;;;;;;19.70;57.00;;;;;;5042785;28;20379;-63
2023/09/07 11:08:06;;;;;;;;;;;19.70;56.00;;;;;;5059155;28;19999;-60
2023/09/07 11:10:34;;;;;;;;;;;19.80;57.10;;;;;;5044034;28;19933;-62
2023/09/07 11:13:12;;;;;;;;;;;19.80;57.00;;;;;;5043426;28;19929;-60
2023/09/07 11:15:42;;;;;;;;;;;19.80;56.70;;;;;;5044927;28;20380;-66
2023/09/07 11:18:11;;;;;;;;;;;19.80;56.90;;;;;;5040625;28;20641;-63
2023/09/07 11:20:41;;;;;;;;;;;19.80;56.20;;;;;;5043103;28;19932;-62
2023/09/07 11:23:08;;;;;;;;;;;19.90;56.90;;;;;;5042933;28;20266;-63
2023/09/07 11:25:36;;;;;;;;;;;19.90;55.70;;;;;;5043305;28;19925;-63
2023/09/07 11:28:04;;;;;;;;;;;19.90;56.10;;;;;;5041613;28;20018;-66
2023/09/07 11:30:31;;;;;;;;;;;19.90;56.20;;;;;;5046452;28;19964;-61
2023/09/07 11:33:04;;;;;;;;;;;19.90;56.70;;;;;;5041221;28;20343;-61
2023/09/07 11:35:31;;;;;;;;;;;19.90;56.90;;;;;;5044933;28;20004;-65
2023/09/07 11:38:03;;;;;;;;;;;19.90;56.30;;;;;;5047116;28;19951;-62
2023/09/07 11:40:33;;;;;;;;;;;20.00;56.40;;;;;;5042606;28;19925;-61
2023/09/07 11:43:00;;;;;;;;;;;19.90;55.60;;;;;;5050135;28;19925;-62
2023/09/07 11:45:27;;;;;;;;;;;20.00;56.10;;;;;;5046200;28;20306;-62
2023/09/07 11:47:55;;;;;;;;;;;20.00;55.70;;;;;;5042947;28;20452;-63
2023/09/07 11:50:23;;;;;;;;;;;19.90;55.10;;;;;;5049429;28;19978;-63
2023/09/07 11:52:50;;;;;;;;;;;20.00;55.70;;;;;;5047047;28;19932;-62
2023/09/07 11:55:17;;;;;;;;;;;20.00;56.40;;;;;;5043190;28;19940;-61
2023/09/07 11:57:44;;;;;;;;;;;20.00;55.90;;;;;;5043516;28;20411;-63
2023/09/07 12:00:12;;;;;;;;;;;20.10;56.40;;;;;;5049137;28;19925;-65
2023/09/07 12:02:39;;;;;;;;;;;20.10;56.60;;;;;;5044499;28;19952;-65
2023/09/07 12:05:10;;;;;;;;;;;20.10;56.00;;;;;;5043804;28;19994;-63
2023/09/07 12:07:38;;;;;;;;;;;20.10;56.80;;;;;;5044751;28;19933;-62
2023/09/07 12:10:05;;;;;;;;;;;20.20;55.60;;;;;;5042715;28;21575;-60
2023/09/07 12:12:32;;;;;;;;;;;20.20;56.80;;;;;;5041928;28;19932;-61
2023/09/07 12:15:00;;;;;;;;;;;20.20;56.30;;;;;;5046857;28;19932;-60
2023/09/07 12:17:27;;;;;;;;;;;20.20;56.70;;;;;;5045349;28;19936;-61
2023/09/07 12:19:54;;;;;;;;;;;20.20;56.10;;;;;;5051263;28;19971;-61
2023/09/07 12:22:22;;;;;;;;;;;20.20;57.00;;;;;;5042234;28;20391;-61
2023/09/07 12:24:49;;;;;;;;;;;20.20;56.70;;;;;;5044608;28;19933;-62
2023/09/07 12:27:36;;;;;;;;;;;20.30;56.70;;;;;;5043395;28;20300;-61
2023/09/07 12:30:20;;;;;;;;;;;20.30;57.20;;;;;;5048123;28;19932;-61
2023/09/07 12:32:48;;;;;;;;;;;20.30;57.20;;;;;;5044353;28;19933;-61
2023/09/07 12:35:15;;;;;;;;;;;20.40;57.30;;;;;;5043575;28;19929;-62
2023/09/07 12:37:43;;;;;;;;;;;20.40;56.80;;;;;;5040564;28;20304;-61
2023/09/07 12:40:14;;;;;;;;;;;20.40;57.00;;;;;;5044066;28;19925;-62
2023/09/07 12:42:42;;;;;;;;;;;20.50;56.80;;;;;;5046269;28;19932;-62
2023/09/07 12:45:10;;;;;;;;;;;20.50;56.60;;;;;;5044724;28;19968;-62
2023/09/07 12:47:38;;;;;;;;;;;20.60;56.60;;;;;;5041795;28;19929;-62
2023/09/07 12:50:06;;;;;;;;;;;20.60;56.50;;;;;;5043736;28;21230;-62
2023/09/07 12:52:37;;;;;;;;;;;20.60;56.50;;;;;;5047116;28;20438;-62
2023/09/07 12:55:05;;;;;;;;;;;20.60;56.50;;;;;;5048049;28;19928;-61
2023/09/07 12:57:33;;;;;;;;;;;20.70;56.80;;;;;;5040436;28;19939;-62
2023/09/07 13:00:00;;;;;;;;;;;20.70;56.50;;;;;;5043212;28;20459;-63
2023/09/07 13:02:27;;;;;;;;;;;20.70;56.70;;;;;;5023655;28;19968;-62
2023/09/07 13:04:55;;;;;;;;;;;20.70;57.20;;;;;;5048126;28;20335;-62
2023/09/07 13:07:23;;;;;;;;;;;20.70;57.40;;;;;;5044020;28;20319;-62
2023/09/07 13:09:50;;;;;;;;;;;20.80;56.90;;;;;;5043139;28;19972;-62
2023/09/07 13:12:17;;;;;;;;;;;20.80;57.10;;;;;;5046017;28;19977;-63
2023/09/07 13:14:44;;;;;;;;;;;20.80;56.80;;;;;;5043265;28;19937;-63
2023/09/07 13:17:13;;;;;;;;;;;20.80;56.90;;;;;;5042550;28;19971;-63
2023/09/07 13:19:41;;;;;;;;;;;20.80;56.90;;;;;;5050634;28;19990;-63
2023/09/07 13:22:08;;;;;;;;;;;20.80;56.90;;;;;;5042077;28;19932;-64
2023/09/07 13:24:35;;;;;;;;;;;20.80;56.70;;;;;;5043121;28;19933;-65
2023/09/07 13:27:03;;;;;;;;;;;20.90;56.90;;;;;;5044557;28;19925;-67
2023/09/07 13:29:33;;;;;;;;;;;20.90;57.00;;;;;;5040387;28;20470;-63
2023/09/07 13:32:01;;;;;;;;;;;20.90;57.00;;;;;;5043287;28;20349;-62
2023/09/07 13:34:28;;;;;;;;;;;20.90;57.20;;;;;;5046879;28;20434;-62
2023/09/07 13:36:55;;;;;;;;;;;21.00;57.10;;;;;;5038847;28;19971;-63
2023/09/07 13:39:23;;;;;;;;;;;21.00;57.00;;;;;;5049408;28;20412;-62
2023/09/07 13:41:50;;;;;;;;;;;21.00;56.60;;;;;;5047611;28;19925;-64
2023/09/07 13:44:17;;;;;;;;;;;21.00;57.30;;;;;;5049887;28;19925;-63
2023/09/07 13:46:44;;;;;;;;;;;21.00;56.70;;;;;;5048749;28;20011;-62
2023/09/07 13:49:12;;;;;;;;;;;21.00;56.90;;;;;;5046479;28;20278;-64
2023/09/07 13:51:40;;;;;;;;;;;21.00;57.10;;;;;;5045186;28;19933;-63
2023/09/07 13:54:08;;;;;;;;;;;21.00;57.10;;;;;;5047132;28;20329;-64
2023/09/07 13:56:36;;;;;;;;;;;21.00;56.80;;;;;;5042209;28;19933;-65
2023/09/07 13:59:04;;;;;;;;;;;21.00;56.90;;;;;;5054606;28;19933;-62
2023/09/07 14:01:31;;;;;;;;;;;21.00;56.90;;;;;;5047380;28;19925;-62
2023/09/07 14:03:59;;;;;;;;;;;21.00;56.90;;;;;;5045734;28;19975;-64
2023/09/07 14:06:26;;;;;;;;;;;21.10;63.90;;;;;;5062208;28;19925;-64
2023/09/07 14:08:53;;;;;;;;;;;21.30;69.40;;;;;;5040148;28;21499;-64
2023/09/07 14:11:22;;;;;;;;;;;21.50;71.70;;;;;;5045185;28;19933;-64
2023/09/07 14:13:51;;;;;;;;;;;21.80;72.60;;;;;;5047095;28;19924;-60
2023/09/07 14:16:19;;;;;;;;;;;22.10;73.20;;;;;;5043041;28;19956;-61
2023/09/07 14:18:47;;;;;;;;;;;22.40;73.00;;;;;;5047217;28;19933;-59
2023/09/07 14:21:14;;;;;;;;;;;22.60;72.70;;;;;;5043123;28;19929;-60
2023/09/07 14:23:45;;;;;;;;;;;22.80;72.50;;;;;;5049565;28;20028;-60